Time;durP1;ratioP1;P1;durP2;ratioP2;P2;SDS_P1;SDS_P2;PMS_P1;PMS_P2;Temp;Humidity;BMP_temperature;BMP_pressure;BME280_temperature;BME280_humidity;BME280_pressure;Samples;Min_cycle;Max_cycle;Signal;HPM_P1;HPM_P2
2023/06/14 00:01:53;;;;;;;;;;;15.00;66.70;;;;;;4126457;28;19922;-84
2023/06/14 00:04:16;;;;;;;;;;;14.90;66.80;;;;;;4127532;28;19937;-81
2023/06/14 00:06:37;;;;;;;;;;;14.80;66.70;;;;;;4128085;28;20004;-84
2023/06/14 00:08:58;;;;;;;;;;;14.80;67.10;;;;;;4132703;28;20101;-83
2023/06/14 00:11:20;;;;;;;;;;;14.80;67.20;;;;;;4128609;28;19960;-84
2023/06/14 00:13:41;;;;;;;;;;;14.80;67.20;;;;;;4133503;28;19914;-82
2023/06/14 00:16:03;;;;;;;;;;;14.80;68.00;;;;;;4141508;28;19925;-82
2023/06/14 00:18:24;;;;;;;;;;;14.60;68.50;;;;;;4147523;28;19921;-82
2023/06/14 00:20:46;;;;;;;;;;;14.60;68.50;;;;;;4121006;28;19941;-82
2023/06/14 00:23:07;;;;;;;;;;;14.60;68.40;;;;;;4124651;28;19937;-80
2023/06/14 00:25:28;;;;;;;;;;;14.60;68.40;;;;;;4128665;28;19917;-81
2023/06/14 00:27:49;;;;;;;;;;;14.60;68.40;;;;;;4139035;28;19926;-83
2023/06/14 00:30:10;;;;;;;;;;;14.60;68.20;;;;;;4134320;28;19924;-82
2023/06/14 00:32:31;;;;;;;;;;;14.50;68.30;;;;;;4131226;28;19918;-83
2023/06/14 00:34:52;;;;;;;;;;;14.60;68.30;;;;;;4132958;28;19918;-83
2023/06/14 00:37:14;;;;;;;;;;;14.50;68.40;;;;;;4135044;28;19917;-82
2023/06/14 00:39:34;;;;;;;;;;;14.60;68.00;;;;;;4134234;28;20245;-82
2023/06/14 00:41:55;;;;;;;;;;;14.60;68.30;;;;;;4131743;28;19914;-83
2023/06/14 00:44:17;;;;;;;;;;;14.50;68.70;;;;;;4130848;28;19914;-83
2023/06/14 00:46:37;;;;;;;;;;;14.50;68.00;;;;;;4127843;28;19918;-81
2023/06/14 00:49:00;;;;;;;;;;;14.50;68.80;;;;;;4126931;28;19925;-83
2023/06/14 00:51:21;;;;;;;;;;;14.50;68.90;;;;;;4127815;28;19981;-82
2023/06/14 00:53:46;;;;;;;;;;;14.40;69.10;;;;;;4136632;28;19929;-81
2023/06/14 00:56:06;;;;;;;;;;;14.40;69.00;;;;;;4132385;28;19921;-83
2023/06/14 00:58:28;;;;;;;;;;;14.40;69.10;;;;;;4137803;28;19922;-82
2023/06/14 01:00:49;;;;;;;;;;;14.40;69.30;;;;;;4130953;28;19929;-82
2023/06/14 01:03:12;;;;;;;;;;;14.40;69.40;;;;;;4130786;28;19938;-82
2023/06/14 01:05:33;;;;;;;;;;;14.40;69.80;;;;;;4131262;28;19920;-82
2023/06/14 01:07:53;;;;;;;;;;;14.40;69.70;;;;;;4142329;28;19928;-83
2023/06/14 01:10:25;;;;;;;;;;;14.40;69.70;;;;;;4141451;28;19917;-83
2023/06/14 01:12:46;;;;;;;;;;;14.40;69.60;;;;;;4133589;28;19924;-83
2023/06/14 01:15:08;;;;;;;;;;;14.40;69.40;;;;;;4135936;28;19921;-83
2023/06/14 01:17:31;;;;;;;;;;;14.40;69.50;;;;;;4137625;28;19922;-84
2023/06/14 01:19:57;;;;;;;;;;;14.40;69.50;;;;;;4138067;28;19973;-83
2023/06/14 01:22:18;;;;;;;;;;;14.40;69.90;;;;;;4138022;28;19941;-83
2023/06/14 01:24:39;;;;;;;;;;;14.40;70.30;;;;;;4135805;28;19918;-84
2023/06/14 01:27:00;;;;;;;;;;;14.40;70.30;;;;;;4143617;28;20033;-83
2023/06/14 01:29:22;;;;;;;;;;;14.30;69.80;;;;;;4130874;28;19914;-84
2023/06/14 01:31:43;;;;;;;;;;;14.40;69.60;;;;;;4138518;28;19918;-84
2023/06/14 01:34:04;;;;;;;;;;;14.40;69.60;;;;;;4144593;28;19965;-84
2023/06/14 01:36:27;;;;;;;;;;;14.40;70.20;;;;;;4148265;28;19937;-84
2023/06/14 01:38:49;;;;;;;;;;;14.30;70.10;;;;;;4146577;28;19918;-84
2023/06/14 01:41:11;;;;;;;;;;;14.30;70.20;;;;;;4145193;28;20608;-84
2023/06/14 01:43:33;;;;;;;;;;;14.30;70.80;;;;;;4146509;28;19918;-82
2023/06/14 01:45:54;;;;;;;;;;;14.30;70.20;;;;;;4139922;28;19913;-84
2023/06/14 01:48:15;;;;;;;;;;;14.40;70.20;;;;;;4142628;28;19917;-84
2023/06/14 01:50:36;;;;;;;;;;;14.30;69.90;;;;;;4137693;28;19918;-83
2023/06/14 01:52:57;;;;;;;;;;;14.30;70.50;;;;;;4134679;28;20005;-83
2023/06/14 01:55:18;;;;;;;;;;;14.30;70.50;;;;;;4135702;28;19917;-83
2023/06/14 01:57:39;;;;;;;;;;;14.30;70.30;;;;;;4131728;28;19956;-82
2023/06/14 02:00:00;;;;;;;;;;;14.20;70.30;;;;;;4136010;28;19977;-83
2023/06/14 02:02:21;;;;;;;;;;;14.30;69.70;;;;;;4130579;28;19961;-83
2023/06/14 02:04:42;;;;;;;;;;;14.20;69.40;;;;;;4134435;28;19914;-83
2023/06/14 02:07:03;;;;;;;;;;;14.30;70.90;;;;;;4134735;28;19929;-82
2023/06/14 02:09:24;;;;;;;;;;;14.20;71.10;;;;;;4138266;28;19957;-83
2023/06/14 02:11:45;;;;;;;;;;;14.20;70.60;;;;;;4134244;28;19921;-83
2023/06/14 02:14:06;;;;;;;;;;;14.20;70.60;;;;;;4129148;28;19929;-83
2023/06/14 02:16:29;;;;;;;;;;;14.20;70.60;;;;;;4131886;28;19917;-83
2023/06/14 02:18:51;;;;;;;;;;;14.10;71.10;;;;;;4129474;28;19946;-82
2023/06/14 02:21:12;;;;;;;;;;;14.10;71.10;;;;;;4130406;28;19914;-83
2023/06/14 02:23:33;;;;;;;;;;;14.10;71.60;;;;;;4125050;28;20431;-83
2023/06/14 02:25:54;;;;;;;;;;;14.20;71.90;;;;;;4131467;28;19921;-83
2023/06/14 02:28:15;;;;;;;;;;;14.10;71.90;;;;;;4132619;28;19917;-85
2023/06/14 02:30:35;;;;;;;;;;;14.10;71.60;;;;;;4133707;28;19990;-83
2023/06/14 02:32:56;;;;;;;;;;;14.10;71.00;;;;;;4131294;28;19944;-82
2023/06/14 02:35:17;;;;;;;;;;;14.10;70.70;;;;;;4138308;28;19977;-83
2023/06/14 02:37:38;;;;;;;;;;;14.10;70.40;;;;;;4130384;28;20517;-83
2023/06/14 02:39:59;;;;;;;;;;;14.10;70.30;;;;;;4133072;28;19929;-84
2023/06/14 02:42:20;;;;;;;;;;;14.10;70.00;;;;;;4134808;28;19925;-83
2023/06/14 02:44:41;;;;;;;;;;;14.10;69.90;;;;;;4133144;28;19914;-82
2023/06/14 02:47:02;;;;;;;;;;;14.10;69.90;;;;;;4138082;28;19963;-82
2023/06/14 02:49:23;;;;;;;;;;;14.10;69.70;;;;;;4136193;28;19918;-82
2023/06/14 02:51:44;;;;;;;;;;;14.10;70.60;;;;;;4133285;28;19921;-83
2023/06/14 02:54:05;;;;;;;;;;;14.10;70.10;;;;;;4135495;28;19914;-83
2023/06/14 02:56:26;;;;;;;;;;;14.10;70.00;;;;;;4135011;28;19918;-83
2023/06/14 02:58:48;;;;;;;;;;;14.10;69.90;;;;;;4135873;28;19969;-85
2023/06/14 03:01:12;;;;;;;;;;;14.20;69.60;;;;;;4132567;28;19918;-85
2023/06/14 03:03:33;;;;;;;;;;;14.10;69.20;;;;;;4126746;28;19926;-85
2023/06/14 03:05:54;;;;;;;;;;;14.10;69.10;;;;;;4130082;28;20000;-82
2023/06/14 03:08:16;;;;;;;;;;;14.10;69.90;;;;;;4133592;28;19918;-83
2023/06/14 03:10:39;;;;;;;;;;;14.10;70.50;;;;;;4133952;28;19918;-84
2023/06/14 03:13:01;;;;;;;;;;;14.20;71.60;;;;;;4131834;28;19961;-82
2023/06/14 03:15:24;;;;;;;;;;;14.20;72.10;;;;;;4128068;28;20001;-83
2023/06/14 03:17:45;;;;;;;;;;;14.10;72.10;;;;;;4130078;28;19918;-84
2023/06/14 03:20:06;;;;;;;;;;;14.10;72.20;;;;;;4134253;28;20013;-81
2023/06/14 03:22:28;;;;;;;;;;;14.10;72.50;;;;;;4135131;28;19925;-83
2023/06/14 03:24:50;;;;;;;;;;;14.10;73.70;;;;;;4133689;28;20024;-82
2023/06/14 03:27:12;;;;;;;;;;;14.10;74.70;;;;;;4133053;28;19960;-83
2023/06/14 03:29:33;;;;;;;;;;;14.10;75.20;;;;;;4131469;28;19918;-85
2023/06/14 03:32:00;;;;;;;;;;;14.10;75.50;;;;;;4130735;28;20083;-82
2023/06/14 03:34:21;;;;;;;;;;;14.10;75.40;;;;;;4132924;28;19914;-83
2023/06/14 03:36:42;;;;;;;;;;;14.10;75.50;;;;;;4132105;28;20373;-83
2023/06/14 03:39:02;;;;;;;;;;;14.20;75.50;;;;;;4127770;28;19924;-83
2023/06/14 03:41:23;;;;;;;;;;;14.10;75.50;;;;;;4139355;28;20384;-83
2023/06/14 03:43:44;;;;;;;;;;;14.10;75.50;;;;;;4129394;28;19918;-82
2023/06/14 03:46:05;;;;;;;;;;;14.10;76.40;;;;;;4131799;28;19917;-83
2023/06/14 03:48:26;;;;;;;;;;;14.10;76.70;;;;;;4133299;28;19921;-83
2023/06/14 03:50:47;;;;;;;;;;;14.20;77.50;;;;;;4133051;28;20491;-81
2023/06/14 03:53:08;;;;;;;;;;;14.30;78.70;;;;;;4133211;28;20136;-82
2023/06/14 03:55:31;;;;;;;;;;;14.30;78.20;;;;;;4133492;28;19930;-84
2023/06/14 03:57:51;;;;;;;;;;;14.40;78.50;;;;;;4132903;28;20164;-83
2023/06/14 04:00:12;;;;;;;;;;;14.40;78.50;;;;;;4135405;28;19938;-85
2023/06/14 04:02:33;;;;;;;;;;;14.40;78.60;;;;;;4131993;28;20528;-82
2023/06/14 04:04:54;;;;;;;;;;;14.40;78.70;;;;;;4133499;28;19937;-84
2023/06/14 04:07:19;;;;;;;;;;;14.50;78.50;;;;;;4134374;28;19917;-83
2023/06/14 04:09:40;;;;;;;;;;;14.60;78.80;;;;;;4140695;28;19921;-83
2023/06/14 04:12:01;;;;;;;;;;;14.70;78.90;;;;;;4132887;28;19918;-83
2023/06/14 04:14:22;;;;;;;;;;;14.70;78.50;;;;;;4132092;28;19914;-82
2023/06/14 04:16:42;;;;;;;;;;;14.80;78.70;;;;;;4129636;28;19933;-83
2023/06/14 04:19:03;;;;;;;;;;;14.90;78.60;;;;;;4132222;28;19914;-81
2023/06/14 04:21:25;;;;;;;;;;;14.90;78.30;;;;;;4138048;28;19926;-84
2023/06/14 04:23:46;;;;;;;;;;;15.10;78.00;;;;;;4147513;28;19902;-84
2023/06/14 04:26:07;;;;;;;;;;;15.10;78.20;;;;;;4150751;28;19898;-83
2023/06/14 04:28:28;;;;;;;;;;;15.10;77.60;;;;;;4150105;28;19946;-84
2023/06/14 04:30:49;;;;;;;;;;;15.20;77.20;;;;;;4139325;28;19906;-85
2023/06/14 04:33:10;;;;;;;;;;;15.30;77.40;;;;;;4147184;28;19930;-83
2023/06/14 04:35:32;;;;;;;;;;;15.40;77.10;;;;;;4136876;28;19986;-83
2023/06/14 04:37:53;;;;;;;;;;;15.50;76.50;;;;;;4134639;28;19917;-83
2023/06/14 04:40:14;;;;;;;;;;;15.50;75.40;;;;;;4135053;28;19993;-83
2023/06/14 04:42:36;;;;;;;;;;;15.50;75.10;;;;;;4136087;28;19937;-85
2023/06/14 04:44:58;;;;;;;;;;;15.70;75.10;;;;;;4131743;28;19918;-82
2023/06/14 04:47:19;;;;;;;;;;;15.60;74.60;;;;;;4127832;28;19929;-82
2023/06/14 04:49:40;;;;;;;;;;;15.70;74.60;;;;;;4128012;28;19929;-83
2023/06/14 04:52:01;;;;;;;;;;;15.80;74.60;;;;;;4133038;28;20303;-84
2023/06/14 04:54:22;;;;;;;;;;;15.90;74.20;;;;;;4134380;28;19914;-83
2023/06/14 04:56:43;;;;;;;;;;;15.90;74.10;;;;;;4135670;28;19925;-83
2023/06/14 04:59:04;;;;;;;;;;;16.00;73.80;;;;;;4129874;28;19940;-82
2023/06/14 05:01:26;;;;;;;;;;;16.10;73.70;;;;;;4138713;28;20454;-85
2023/06/14 05:03:49;;;;;;;;;;;16.20;73.60;;;;;;4129072;28;19941;-84
2023/06/14 05:06:09;;;;;;;;;;;16.20;73.10;;;;;;4133021;28;19934;-83
2023/06/14 05:08:30;;;;;;;;;;;16.30;72.80;;;;;;4120933;28;19925;-83
2023/06/14 05:10:51;;;;;;;;;;;16.40;72.20;;;;;;4131530;28;20391;-83
2023/06/14 05:13:12;;;;;;;;;;;16.40;72.20;;;;;;4130356;28;19910;-83
2023/06/14 05:15:33;;;;;;;;;;;16.40;71.50;;;;;;4137189;28;20179;-82
2023/06/14 05:17:55;;;;;;;;;;;16.50;70.90;;;;;;4128083;28;19949;-83
2023/06/14 05:20:16;;;;;;;;;;;16.60;71.00;;;;;;4134567;28;19914;-84
2023/06/14 05:22:37;;;;;;;;;;;16.70;71.00;;;;;;4130805;28;19989;-83
2023/06/14 05:24:58;;;;;;;;;;;16.70;70.50;;;;;;4137394;28;19909;-83
2023/06/14 05:27:18;;;;;;;;;;;16.80;69.50;;;;;;4136566;28;20536;-82
2023/06/14 05:29:40;;;;;;;;;;;16.90;69.20;;;;;;4137007;28;20291;-82
2023/06/14 05:32:00;;;;;;;;;;;16.90;68.80;;;;;;4133353;28;19924;-83
2023/06/14 05:34:22;;;;;;;;;;;17.00;68.70;;;;;;4133656;28;20492;-83
2023/06/14 05:36:42;;;;;;;;;;;17.00;68.50;;;;;;4133431;28;19914;-83
2023/06/14 05:39:04;;;;;;;;;;;17.10;67.50;;;;;;4135257;28;19928;-84
2023/06/14 05:41:25;;;;;;;;;;;17.10;66.90;;;;;;4139919;28;19948;-84
2023/06/14 05:43:46;;;;;;;;;;;17.10;66.40;;;;;;4134529;28;21991;-84
2023/06/14 05:46:07;;;;;;;;;;;17.10;66.20;;;;;;4139922;28;20380;-81
2023/06/14 05:48:28;;;;;;;;;;;17.20;65.60;;;;;;4140712;28;19918;-80
2023/06/14 05:50:49;;;;;;;;;;;17.20;65.90;;;;;;4138048;28;19957;-83
2023/06/14 05:53:10;;;;;;;;;;;17.20;65.30;;;;;;4140833;28;20082;-83
2023/06/14 05:55:31;;;;;;;;;;;17.30;65.70;;;;;;4139402;28;19920;-84
2023/06/14 05:57:52;;;;;;;;;;;17.30;65.40;;;;;;4149621;28;19931;-82
2023/06/14 06:00:16;;;;;;;;;;;17.30;65.50;;;;;;4141299;28;20384;-82
2023/06/14 06:02:37;;;;;;;;;;;17.40;65.60;;;;;;4146775;28;19984;-83
2023/06/14 06:04:58;;;;;;;;;;;17.40;65.50;;;;;;4137395;28;20024;-84
2023/06/14 06:07:19;;;;;;;;;;;17.40;65.20;;;;;;4132246;28;19926;-82
2023/06/14 06:09:40;;;;;;;;;;;17.50;65.70;;;;;;4138631;28;20012;-84
2023/06/14 06:12:06;;;;;;;;;;;17.40;64.80;;;;;;4134533;28;20123;-83
2023/06/14 06:14:27;;;;;;;;;;;17.40;64.50;;;;;;4138526;28;20360;-84
2023/06/14 06:16:48;;;;;;;;;;;17.40;64.00;;;;;;4136011;28;19921;-85
2023/06/14 06:19:09;;;;;;;;;;;17.50;64.30;;;;;;4138868;28;19968;-83
2023/06/14 06:21:32;;;;;;;;;;;17.50;64.60;;;;;;4134308;28;19913;-83
2023/06/14 06:23:54;;;;;;;;;;;17.60;64.60;;;;;;4138152;28;19920;-83
2023/06/14 06:26:15;;;;;;;;;;;17.60;64.00;;;;;;4137654;28;20453;-83
2023/06/14 06:28:36;;;;;;;;;;;17.60;62.80;;;;;;4138026;28;19909;-83
2023/06/14 06:30:57;;;;;;;;;;;17.60;63.10;;;;;;4135983;28;19913;-83
2023/06/14 06:33:17;;;;;;;;;;;17.80;63.70;;;;;;4133834;28;20180;-83
2023/06/14 06:35:38;;;;;;;;;;;17.80;63.70;;;;;;4134698;28;19940;-84
2023/06/14 06:38:00;;;;;;;;;;;17.90;63.50;;;;;;4136406;28;19976;-82
2023/06/14 06:40:21;;;;;;;;;;;17.80;62.70;;;;;;4134652;28;19914;-81
2023/06/14 06:42:42;;;;;;;;;;;17.90;61.60;;;;;;4138313;28;19968;-82
2023/06/14 06:45:03;;;;;;;;;;;17.90;60.50;;;;;;4139839;28;19913;-83
2023/06/14 06:47:24;;;;;;;;;;;18.00;60.20;;;;;;4137547;28;19933;-84
2023/06/14 06:49:45;;;;;;;;;;;18.00;58.40;;;;;;4137945;28;19961;-84
2023/06/14 06:52:06;;;;;;;;;;;18.10;58.60;;;;;;4135418;28;20004;-83
2023/06/14 06:54:27;;;;;;;;;;;18.10;58.70;;;;;;4137593;28;19910;-83
2023/06/14 06:56:48;;;;;;;;;;;18.10;58.30;;;;;;4133602;28;20297;-82
2023/06/14 06:59:09;;;;;;;;;;;18.10;58.00;;;;;;4137506;28;19925;-83
2023/06/14 07:01:30;;;;;;;;;;;18.10;57.00;;;;;;4137911;28;19918;-85
2023/06/14 07:03:51;;;;;;;;;;;18.10;57.80;;;;;;4131347;28;19918;-83
2023/06/14 07:06:12;;;;;;;;;;;18.10;57.30;;;;;;4133315;28;19942;-84
2023/06/14 07:08:32;;;;;;;;;;;18.10;57.80;;;;;;4133724;28;19921;-83
2023/06/14 07:10:53;;;;;;;;;;;18.20;58.60;;;;;;4138736;28;19977;-84
2023/06/14 07:13:14;;;;;;;;;;;18.20;58.90;;;;;;4135000;28;19953;-83
2023/06/14 07:15:35;;;;;;;;;;;18.20;59.20;;;;;;4139403;28;19953;-83
2023/06/14 07:17:59;;;;;;;;;;;18.20;59.00;;;;;;4136123;28;19924;-83
2023/06/14 07:20:21;;;;;;;;;;;18.20;58.60;;;;;;4134543;28;19913;-82
2023/06/14 07:22:43;;;;;;;;;;;18.30;58.70;;;;;;4131604;28;20483;-84
2023/06/14 07:25:04;;;;;;;;;;;18.30;58.80;;;;;;4137653;28;19918;-84
2023/06/14 07:27:24;;;;;;;;;;;18.30;59.10;;;;;;4138171;28;20387;-84
2023/06/14 07:29:45;;;;;;;;;;;18.40;59.00;;;;;;4140183;28;20002;-83
2023/06/14 07:32:06;;;;;;;;;;;18.40;59.30;;;;;;4134991;28;19913;-84
2023/06/14 07:34:27;;;;;;;;;;;18.50;58.90;;;;;;4132213;28;19969;-84
2023/06/14 07:36:48;;;;;;;;;;;18.50;58.70;;;;;;4136849;28;19910;-82
2023/06/14 07:39:09;;;;;;;;;;;18.50;58.70;;;;;;4131674;28;19925;-84
2023/06/14 07:41:30;;;;;;;;;;;18.50;58.20;;;;;;4133401;28;20022;-83
2023/06/14 07:43:51;;;;;;;;;;;18.50;57.40;;;;;;4136308;28;20415;-84
2023/06/14 07:46:12;;;;;;;;;;;18.60;58.30;;;;;;4134209;28;20011;-85
2023/06/14 07:48:35;;;;;;;;;;;18.60;58.70;;;;;;4132572;28;20391;-83
2023/06/14 07:50:56;;;;;;;;;;;18.60;58.40;;;;;;4132617;28;19914;-84
2023/06/14 07:53:16;;;;;;;;;;;18.70;58.30;;;;;;4131522;28;19914;-83
2023/06/14 07:55:38;;;;;;;;;;;18.70;58.00;;;;;;4131697;28;19949;-82
2023/06/14 07:57:59;;;;;;;;;;;18.80;58.30;;;;;;4133671;28;20379;-84
2023/06/14 08:00:20;;;;;;;;;;;18.80;58.40;;;;;;4132781;28;19988;-83
2023/06/14 08:02:42;;;;;;;;;;;18.90;58.60;;;;;;4133140;28;19929;-84
2023/06/14 08:05:03;;;;;;;;;;;19.00;59.00;;;;;;4133403;28;19980;-84
2023/06/14 08:07:24;;;;;;;;;;;19.10;59.00;;;;;;4132677;28;19968;-82
2023/06/14 08:09:45;;;;;;;;;;;19.10;58.20;;;;;;4132363;28;19972;-84
2023/06/14 08:12:07;;;;;;;;;;;19.10;58.20;;;;;;4136740;28;19922;-81
2023/06/14 08:14:28;;;;;;;;;;;19.20;57.70;;;;;;4130970;28;19926;-85
2023/06/14 08:16:49;;;;;;;;;;;19.30;57.40;;;;;;4121524;28;19922;-83
2023/06/14 08:19:10;;;;;;;;;;;19.30;57.40;;;;;;4134273;28;19917;-82
2023/06/14 08:21:33;;;;;;;;;;;19.30;57.40;;;;;;4132692;28;19936;-82
2023/06/14 08:23:54;;;;;;;;;;;19.30;57.10;;;;;;4130220;28;19922;-84
2023/06/14 08:26:14;;;;;;;;;;;19.40;57.80;;;;;;4132950;28;19922;-82
2023/06/14 08:28:35;;;;;;;;;;;19.40;58.10;;;;;;4132804;28;19914;-85
2023/06/14 08:30:56;;;;;;;;;;;19.40;58.00;;;;;;4132595;28;19913;-83
2023/06/14 08:33:17;;;;;;;;;;;19.40;57.80;;;;;;4132257;28;20008;-84
2023/06/14 08:35:39;;;;;;;;;;;19.40;57.80;;;;;;4137145;28;19914;-84
2023/06/14 08:38:00;;;;;;;;;;;19.40;57.20;;;;;;4136741;28;20013;-83
2023/06/14 08:40:22;;;;;;;;;;;19.40;57.20;;;;;;4138205;28;19996;-84
2023/06/14 08:42:43;;;;;;;;;;;19.40;57.10;;;;;;4133728;28;19910;-83
2023/06/14 08:45:03;;;;;;;;;;;19.50;57.50;;;;;;4136503;28;19941;-83
2023/06/14 08:47:26;;;;;;;;;;;19.50;57.20;;;;;;4135891;28;19957;-83
2023/06/14 08:49:48;;;;;;;;;;;19.60;57.20;;;;;;4147181;28;19919;-85
2023/06/14 08:52:10;;;;;;;;;;;19.60;57.30;;;;;;4137024;28;19929;-83
2023/06/14 08:54:32;;;;;;;;;;;19.70;56.80;;;;;;4133468;28;20392;-83
2023/06/14 08:56:57;;;;;;;;;;;19.80;56.50;;;;;;4134786;28;19944;-84
2023/06/14 08:59:18;;;;;;;;;;;19.80;56.40;;;;;;4132572;28;19914;-84
2023/06/14 09:01:39;;;;;;;;;;;19.80;56.10;;;;;;4132344;28;19921;-83
2023/06/14 09:04:00;;;;;;;;;;;19.90;56.40;;;;;;4137834;28;19922;-83
2023/06/14 09:06:22;;;;;;;;;;;19.90;55.90;;;;;;4133751;28;19918;-84
2023/06/14 09:08:44;;;;;;;;;;;19.90;55.70;;;;;;4128166;28;19968;-83
2023/06/14 09:11:05;;;;;;;;;;;20.00;55.50;;;;;;4135727;28;19957;-82
2023/06/14 09:13:26;;;;;;;;;;;20.00;55.90;;;;;;4135396;28;19922;-83
2023/06/14 09:15:47;;;;;;;;;;;20.10;55.30;;;;;;4136521;28;19921;-83
2023/06/14 09:18:07;;;;;;;;;;;20.00;55.10;;;;;;4138809;28;19956;-83
2023/06/14 09:20:29;;;;;;;;;;;20.10;55.50;;;;;;4139111;28;19961;-84
2023/06/14 09:22:50;;;;;;;;;;;20.10;55.00;;;;;;4138585;28;19913;-83
2023/06/14 09:25:13;;;;;;;;;;;20.10;55.20;;;;;;4137803;28;19961;-82
2023/06/14 09:27:33;;;;;;;;;;;20.10;54.90;;;;;;4138994;28;19922;-83
2023/06/14 09:29:54;;;;;;;;;;;20.10;54.70;;;;;;4136113;28;19944;-81
2023/06/14 09:32:15;;;;;;;;;;;20.10;54.50;;;;;;4139774;28;19960;-83
2023/06/14 09:34:36;;;;;;;;;;;20.20;54.30;;;;;;4137916;28;19928;-83
2023/06/14 09:36:57;;;;;;;;;;;20.30;54.60;;;;;;4135722;28;19910;-82
2023/06/14 09:39:18;;;;;;;;;;;20.30;54.80;;;;;;4137651;28;19921;-82
2023/06/14 09:41:40;;;;;;;;;;;20.30;54.50;;;;;;4142134;28;19921;-83
2023/06/14 09:44:02;;;;;;;;;;;20.40;54.20;;;;;;4136036;28;19914;-83
2023/06/14 09:46:23;;;;;;;;;;;20.40;53.80;;;;;;4136301;28;19914;-84
2023/06/14 09:48:44;;;;;;;;;;;20.40;53.50;;;;;;4136014;28;19945;-84
2023/06/14 09:51:06;;;;;;;;;;;20.50;53.80;;;;;;4142525;28;19917;-83
2023/06/14 09:53:27;;;;;;;;;;;20.50;53.90;;;;;;4138984;28;19918;-83
2023/06/14 09:55:49;;;;;;;;;;;20.50;53.30;;;;;;4140466;28;19948;-84
2023/06/14 09:58:11;;;;;;;;;;;20.70;52.80;;;;;;4142640;28;19937;-83
2023/06/14 10:00:33;;;;;;;;;;;20.70;52.40;;;;;;4140110;28;19914;-84
2023/06/14 10:02:56;;;;;;;;;;;20.70;52.50;;;;;;4137379;28;19918;-85
2023/06/14 10:05:17;;;;;;;;;;;20.80;51.30;;;;;;4135131;28;19986;-83
2023/06/14 10:07:47;;;;;;;;;;;20.80;51.50;;;;;;4142302;28;19929;-84
2023/06/14 10:10:09;;;;;;;;;;;20.90;52.40;;;;;;4135538;28;19925;-84
2023/06/14 10:12:30;;;;;;;;;;;21.00;51.60;;;;;;4136666;28;19941;-83
2023/06/14 10:14:53;;;;;;;;;;;20.90;49.90;;;;;;4137297;28;19921;-83
2023/06/14 10:17:19;;;;;;;;;;;21.00;51.00;;;;;;4137731;28;19914;-82
2023/06/14 10:19:48;;;;;;;;;;;21.10;49.40;;;;;;4141106;28;20291;-82
2023/06/14 10:22:14;;;;;;;;;;;21.10;48.90;;;;;;4139438;28;19918;-81
2023/06/14 10:24:40;;;;;;;;;;;21.20;49.50;;;;;;4144391;28;19924;-83
2023/06/14 10:27:01;;;;;;;;;;;21.20;49.30;;;;;;4138040;28;19982;-84
2023/06/14 10:29:21;;;;;;;;;;;21.30;47.90;;;;;;4132727;28;19917;-82
2023/06/14 10:31:57;;;;;;;;;;;21.20;45.80;;;;;;4138749;28;19922;-86
2023/06/14 10:34:25;;;;;;;;;;;21.20;45.80;;;;;;4150135;28;19898;-85
2023/06/14 10:36:59;;;;;;;;;;;21.20;45.70;;;;;;4153935;28;19906;-85
2023/06/14 10:39:20;;;;;;;;;;;21.20;46.70;;;;;;4151138;28;19898;-82
2023/06/14 10:41:41;;;;;;;;;;;21.20;47.00;;;;;;4143823;28;19925;-84
2023/06/14 10:44:14;;;;;;;;;;;21.20;47.30;;;;;;4137243;28;19917;-82
2023/06/14 10:46:35;;;;;;;;;;;21.20;46.90;;;;;;4139787;28;19961;-83
2023/06/14 10:48:57;;;;;;;;;;;21.20;47.70;;;;;;4142265;28;19952;-83
2023/06/14 10:51:20;;;;;;;;;;;21.20;48.20;;;;;;4134183;28;20016;-83
2023/06/14 10:53:42;;;;;;;;;;;21.20;48.80;;;;;;4134057;28;19914;-83
2023/06/14 10:56:06;;;;;;;;;;;21.30;49.00;;;;;;4136879;28;19921;-82
2023/06/14 10:58:27;;;;;;;;;;;21.30;47.90;;;;;;4136744;28;19926;-82
2023/06/14 11:00:48;;;;;;;;;;;21.40;48.70;;;;;;4136068;28;19981;-84
2023/06/14 11:03:28;;;;;;;;;;;21.30;48.60;;;;;;4136608;28;19929;-83
2023/06/14 11:05:53;;;;;;;;;;;21.40;48.40;;;;;;4135285;28;20323;-83
2023/06/14 11:08:32;;;;;;;;;;;21.40;48.60;;;;;;4150658;28;19913;-83
2023/06/14 11:10:58;;;;;;;;;;;21.40;48.00;;;;;;4135129;28;20343;-83
2023/06/14 11:13:19;;;;;;;;;;;21.50;48.00;;;;;;4132161;28;19922;-84
2023/06/14 11:15:43;;;;;;;;;;;21.50;48.60;;;;;;4134760;28;19921;-83
2023/06/14 11:18:05;;;;;;;;;;;21.50;48.00;;;;;;4130317;28;19922;-83
2023/06/14 11:20:27;;;;;;;;;;;21.60;48.50;;;;;;4136292;28;19914;-83
2023/06/14 11:22:48;;;;;;;;;;;21.60;47.90;;;;;;4139161;28;19920;-83
2023/06/14 11:25:09;;;;;;;;;;;21.60;47.40;;;;;;4135059;28;20329;-81
2023/06/14 11:27:32;;;;;;;;;;;21.60;48.20;;;;;;4137096;28;20386;-83
2023/06/14 11:29:53;;;;;;;;;;;21.60;47.20;;;;;;4135612;28;20007;-84
2023/06/14 11:32:14;;;;;;;;;;;21.70;47.10;;;;;;4133464;28;19924;-84
2023/06/14 11:34:35;;;;;;;;;;;21.70;46.80;;;;;;4129236;28;19921;-84
2023/06/14 11:37:32;;;;;;;;;;;21.70;47.00;;;;;;4126384;28;20290;-85
2023/06/14 11:39:58;;;;;;;;;;;21.80;45.80;;;;;;4118705;28;19940;-84
2023/06/14 11:42:21;;;;;;;;;;;21.90;46.20;;;;;;4130330;28;21119;-85
2023/06/14 11:44:45;;;;;;;;;;;21.80;46.30;;;;;;4146224;28;20557;-83
2023/06/14 11:47:06;;;;;;;;;;;21.90;44.60;;;;;;4131313;28;19918;-83
2023/06/14 11:49:27;;;;;;;;;;;21.90;45.00;;;;;;4139823;28;20066;-85
2023/06/14 11:51:48;;;;;;;;;;;21.90;45.70;;;;;;4135115;28;19921;-84
2023/06/14 11:54:09;;;;;;;;;;;22.00;45.70;;;;;;4133359;28;19984;-83
2023/06/14 11:56:31;;;;;;;;;;;22.00;44.80;;;;;;4127937;28;19933;-83
2023/06/14 11:58:56;;;;;;;;;;;22.10;45.50;;;;;;4134777;28;19981;-83
2023/06/14 12:01:17;;;;;;;;;;;22.20;45.00;;;;;;4131096;28;19922;-84
2023/06/14 12:03:46;;;;;;;;;;;22.30;43.60;;;;;;4129526;28;19918;-85
2023/06/14 12:06:08;;;;;;;;;;;22.40;44.50;;;;;;4131883;28;19924;-83
2023/06/14 12:08:38;;;;;;;;;;;22.40;43.10;;;;;;4135276;28;19983;-84
2023/06/14 12:10:59;;;;;;;;;;;22.50;41.10;;;;;;4139716;28;20000;-83
2023/06/14 12:13:20;;;;;;;;;;;22.60;42.00;;;;;;4131371;28;19925;-84
2023/06/14 12:15:41;;;;;;;;;;;22.60;39.90;;;;;;4135860;28;19918;-84
2023/06/14 12:18:05;;;;;;;;;;;22.60;40.90;;;;;;4135361;28;19952;-84
2023/06/14 12:20:29;;;;;;;;;;;22.60;39.30;;;;;;4137355;28;19914;-84
2023/06/14 12:22:52;;;;;;;;;;;22.70;40.20;;;;;;4136721;28;19945;-83
2023/06/14 12:25:23;;;;;;;;;;;22.80;40.20;;;;;;4140117;28;20379;-84
2023/06/14 12:27:43;;;;;;;;;;;22.80;41.80;;;;;;4132891;28;19928;-84
2023/06/14 12:30:07;;;;;;;;;;;22.80;39.10;;;;;;4135316;28;20470;-84
2023/06/14 12:32:29;;;;;;;;;;;22.70;38.40;;;;;;4129939;28;19922;-83
2023/06/14 12:34:55;;;;;;;;;;;22.70;41.00;;;;;;4133937;28;19922;-82
2023/06/14 12:37:15;;;;;;;;;;;22.80;37.40;;;;;;4130404;28;19918;-83
2023/06/14 12:39:39;;;;;;;;;;;22.80;41.80;;;;;;4129419;28;19914;-82
2023/06/14 12:42:09;;;;;;;;;;;22.80;39.80;;;;;;4126450;28;19921;-84
2023/06/14 12:44:40;;;;;;;;;;;22.70;38.70;;;;;;4132942;28;19922;-85
2023/06/14 12:47:01;;;;;;;;;;;22.80;39.70;;;;;;4137070;28;19918;-82
2023/06/14 12:49:22;;;;;;;;;;;22.80;42.40;;;;;;4139034;28;19921;-84
2023/06/14 12:51:43;;;;;;;;;;;22.80;38.50;;;;;;4129077;28;19969;-83
2023/06/14 12:54:04;;;;;;;;;;;22.80;41.30;;;;;;4132209;28;19963;-84
2023/06/14 12:56:26;;;;;;;;;;;22.80;41.10;;;;;;4131106;28;20543;-83
2023/06/14 12:58:46;;;;;;;;;;;22.90;39.20;;;;;;4140655;28;19978;-84
2023/06/14 13:01:08;;;;;;;;;;;22.80;41.10;;;;;;4135085;28;19944;-82
2023/06/14 13:03:28;;;;;;;;;;;22.80;39.30;;;;;;4131548;28;21128;-83
2023/06/14 13:05:50;;;;;;;;;;;22.80;38.70;;;;;;4146906;28;19922;-85
2023/06/14 13:08:11;;;;;;;;;;;22.80;37.80;;;;;;4127506;28;19917;-84
2023/06/14 13:10:32;;;;;;;;;;;22.80;38.40;;;;;;4132492;28;19918;-85
2023/06/14 13:12:53;;;;;;;;;;;22.80;36.70;;;;;;4133747;28;19918;-84
2023/06/14 13:15:13;;;;;;;;;;;22.80;36.00;;;;;;4133803;28;19921;-84
2023/06/14 13:17:38;;;;;;;;;;;22.80;37.00;;;;;;4134663;28;19914;-85
2023/06/14 13:19:59;;;;;;;;;;;22.70;37.50;;;;;;4132146;28;19925;-84
2023/06/14 13:22:20;;;;;;;;;;;22.70;37.90;;;;;;4137466;28;19914;-84
2023/06/14 13:24:41;;;;;;;;;;;22.70;36.60;;;;;;4134104;28;19918;-84
2023/06/14 13:27:02;;;;;;;;;;;22.70;36.50;;;;;;4136177;28;19935;-84
2023/06/14 13:29:23;;;;;;;;;;;22.70;37.20;;;;;;4136576;28;20125;-83
2023/06/14 13:31:45;;;;;;;;;;;22.70;37.40;;;;;;4135951;28;19921;-84
2023/06/14 13:34:06;;;;;;;;;;;22.80;35.80;;;;;;4134167;28;19922;-84
2023/06/14 13:36:27;;;;;;;;;;;22.70;34.90;;;;;;4135764;28;19922;-85
2023/06/14 13:38:47;;;;;;;;;;;22.80;36.20;;;;;;4139160;28;19918;-83
2023/06/14 13:41:08;;;;;;;;;;;22.80;35.00;;;;;;4134170;28;19925;-86
2023/06/14 13:43:30;;;;;;;;;;;22.80;36.00;;;;;;4132124;28;19926;-84
2023/06/14 13:45:57;;;;;;;;;;;22.80;35.20;;;;;;4134281;28;20001;-85